sensor_id;sensor_type;location;lat;lon;timestamp;temperature;humidity
81383;DHT22;70834;37.534;-122.308;2023-07-29T00:01:08;28.60;39.90
81383;DHT22;70834;37.534;-122.308;2023-07-29T00:03:29;28.60;40.70
81383;DHT22;70834;37.534;-122.308;2023-07-29T00:05:52;28.60;40.20
81383;DHT22;70834;37.534;-122.308;2023-07-29T00:08:14;28.60;40.30
81383;DHT22;70834;37.534;-122.308;2023-07-29T00:10:38;28.60;40.30
81383;DHT22;70834;37.534;-122.308;2023-07-29T00:13:00;28.50;40.60
81383;DHT22;70834;37.534;-122.308;2023-07-29T00:15:21;28.40;40.70
81383;DHT22;70834;37.534;-122.308;2023-07-29T00:17:43;28.40;40.80
81383;DHT22;70834;37.534;-122.308;2023-07-29T00:20:05;28.30;40.70
81383;DHT22;70834;37.534;-122.308;2023-07-29T00:22:27;28.30;40.70
81383;DHT22;70834;37.534;-122.308;2023-07-29T00:24:52;28.20;40.50
81383;DHT22;70834;37.534;-122.308;2023-07-29T00:27:18;28.10;40.60
81383;DHT22;70834;37.534;-122.308;2023-07-29T00:29:39;28.10;40.40
81383;DHT22;70834;37.534;-122.308;2023-07-29T00:32:01;28.10;40.40
81383;DHT22;70834;37.534;-122.308;2023-07-29T00:34:22;28.00;40.40
81383;DHT22;70834;37.534;-122.308;2023-07-29T00:36:43;27.90;40.30
81383;DHT22;70834;37.534;-122.308;2023-07-29T00:39:05;27.90;40.20
81383;DHT22;70834;37.534;-122.308;2023-07-29T00:41:26;27.80;40.10
81383;DHT22;70834;37.534;-122.308;2023-07-29T00:43:48;27.70;40.10
81383;DHT22;70834;37.534;-122.308;2023-07-29T00:46:10;27.70;39.80
81383;DHT22;70834;37.534;-122.308;2023-07-29T00:48:33;27.60;39.90
81383;DHT22;70834;37.534;-122.308;2023-07-29T00:50:55;27.60;40.10
81383;DHT22;70834;37.534;-122.308;2023-07-29T00:53:17;27.50;39.90
81383;DHT22;70834;37.534;-122.308;2023-07-29T00:55:38;27.40;40.30
81383;DHT22;70834;37.534;-122.308;2023-07-29T00:58:00;27.30;40.30
81383;DHT22;70834;37.534;-122.308;2023-07-29T01:00:22;27.30;40.50
81383;DHT22;70834;37.534;-122.308;2023-07-29T01:02:45;27.20;40.30
81383;DHT22;70834;37.534;-122.308;2023-07-29T01:05:07;27.00;40.60
81383;DHT22;70834;37.534;-122.308;2023-07-29T01:07:30;26.90;40.70
81383;DHT22;70834;37.534;-122.308;2023-07-29T01:10:03;26.90;40.60
81383;DHT22;70834;37.534;-122.308;2023-07-29T01:12:48;26.80;41.00
81383;DHT22;70834;37.534;-122.308;2023-07-29T01:17:43;26.60;41.50
81383;DHT22;70834;37.534;-122.308;2023-07-29T01:20:09;26.40;41.90
81383;DHT22;70834;37.534;-122.308;2023-07-29T01:22:36;26.30;42.10
81383;DHT22;70834;37.534;-122.308;2023-07-29T01:24:58;26.20;42.50
81383;DHT22;70834;37.534;-122.308;2023-07-29T01:27:20;26.10;42.40
81383;DHT22;70834;37.534;-122.308;2023-07-29T01:29:41;26.00;42.70
81383;DHT22;70834;37.534;-122.308;2023-07-29T01:32:17;25.90;42.70
81383;DHT22;70834;37.534;-122.308;2023-07-29T01:34:52;25.80;43.00
81383;DHT22;70834;37.534;-122.308;2023-07-29T01:37:19;25.70;43.10
81383;DHT22;70834;37.534;-122.308;2023-07-29T01:39:44;25.60;43.10
81383;DHT22;70834;37.534;-122.308;2023-07-29T01:42:07;25.50;43.40
81383;DHT22;70834;37.534;-122.308;2023-07-29T01:44:29;25.40;43.50
81383;DHT22;70834;37.534;-122.308;2023-07-29T01:46:50;25.30;44.00
81383;DHT22;70834;37.534;-122.308;2023-07-29T01:49:12;25.10;44.00
81383;DHT22;70834;37.534;-122.308;2023-07-29T01:51:33;25.00;44.30
81383;DHT22;70834;37.534;-122.308;2023-07-29T01:53:54;24.90;44.50
81383;DHT22;70834;37.534;-122.308;2023-07-29T01:56:16;24.90;44.70
81383;DHT22;70834;37.534;-122.308;2023-07-29T01:58:37;24.70;44.80
81383;DHT22;70834;37.534;-122.308;2023-07-29T02:00:59;24.60;45.10
81383;DHT22;70834;37.534;-122.308;2023-07-29T02:03:20;24.40;45.90
81383;DHT22;70834;37.534;-122.308;2023-07-29T02:05:42;24.30;45.70
81383;DHT22;70834;37.534;-122.308;2023-07-29T02:08:04;24.20;45.50
81383;DHT22;70834;37.534;-122.308;2023-07-29T02:10:26;24.10;45.90
81383;DHT22;70834;37.534;-122.308;2023-07-29T02:12:47;24.00;46.10
81383;DHT22;70834;37.534;-122.308;2023-07-29T02:15:09;24.00;46.10
81383;DHT22;70834;37.534;-122.308;2023-07-29T02:17:31;23.90;46.20
81383;DHT22;70834;37.534;-122.308;2023-07-29T02:19:52;23.80;46.30
81383;DHT22;70834;37.534;-122.308;2023-07-29T02:22:16;23.80;46.40
81383;DHT22;70834;37.534;-122.308;2023-07-29T02:24:37;23.70;46.50
81383;DHT22;70834;37.534;-122.308;2023-07-29T02:26:59;23.70;46.60
81383;DHT22;70834;37.534;-122.308;2023-07-29T02:29:20;23.60;46.50
81383;DHT22;70834;37.534;-122.308;2023-07-29T02:31:42;23.50;46.70
81383;DHT22;70834;37.534;-122.308;2023-07-29T02:34:05;23.40;46.90
81383;DHT22;70834;37.534;-122.308;2023-07-29T02:36:26;23.30;47.50
81383;DHT22;70834;37.534;-122.308;2023-07-29T02:38:47;23.20;47.80
81383;DHT22;70834;37.534;-122.308;2023-07-29T02:41:10;23.10;48.10
81383;DHT22;70834;37.534;-122.308;2023-07-29T02:43:33;23.10;48.20
81383;DHT22;70834;37.534;-122.308;2023-07-29T02:45:54;23.00;48.40
81383;DHT22;70834;37.534;-122.308;2023-07-29T02:48:15;22.80;48.80
81383;DHT22;70834;37.534;-122.308;2023-07-29T02:50:37;22.70;49.20
81383;DHT22;70834;37.534;-122.308;2023-07-29T02:52:58;22.60;49.30
81383;DHT22;70834;37.534;-122.308;2023-07-29T02:55:20;22.40;49.60
81383;DHT22;70834;37.534;-122.308;2023-07-29T02:57:41;22.40;49.70
81383;DHT22;70834;37.534;-122.308;2023-07-29T03:00:03;22.30;49.90
81383;DHT22;70834;37.534;-122.308;2023-07-29T03:02:24;22.20;50.20
81383;DHT22;70834;37.534;-122.308;2023-07-29T03:04:48;22.10;50.30
81383;DHT22;70834;37.534;-122.308;2023-07-29T03:07:09;21.90;50.50
81383;DHT22;70834;37.534;-122.308;2023-07-29T03:09:31;21.90;50.70
81383;DHT22;70834;37.534;-122.308;2023-07-29T03:11:53;21.80;51.00
81383;DHT22;70834;37.534;-122.308;2023-07-29T03:14:15;21.70;51.00
81383;DHT22;70834;37.534;-122.308;2023-07-29T03:16:37;21.60;51.20
81383;DHT22;70834;37.534;-122.308;2023-07-29T03:18:58;21.50;51.40
81383;DHT22;70834;37.534;-122.308;2023-07-29T03:21:21;21.40;51.60
81383;DHT22;70834;37.534;-122.308;2023-07-29T03:23:42;21.30;51.90
81383;DHT22;70834;37.534;-122.308;2023-07-29T03:26:04;21.20;52.10
81383;DHT22;70834;37.534;-122.308;2023-07-29T03:28:33;21.10;52.60
81383;DHT22;70834;37.534;-122.308;2023-07-29T03:30:55;21.00;52.90
81383;DHT22;70834;37.534;-122.308;2023-07-29T03:33:17;20.90;53.20
81383;DHT22;70834;37.534;-122.308;2023-07-29T03:35:38;20.80;53.30
81383;DHT22;70834;37.534;-122.308;2023-07-29T03:38:00;20.70;53.50
81383;DHT22;70834;37.534;-122.308;2023-07-29T03:40:21;20.60;54.10
81383;DHT22;70834;37.534;-122.308;2023-07-29T03:42:43;20.50;54.30
81383;DHT22;70834;37.534;-122.308;2023-07-29T03:45:05;20.40;54.60
81383;DHT22;70834;37.534;-122.308;2023-07-29T03:47:27;20.30;54.90
81383;DHT22;70834;37.534;-122.308;2023-07-29T03:49:49;20.20;55.10
81383;DHT22;70834;37.534;-122.308;2023-07-29T03:52:11;20.20;55.20
81383;DHT22;70834;37.534;-122.308;2023-07-29T03:54:32;20.10;55.50
81383;DHT22;70834;37.534;-122.308;2023-07-29T03:56:54;20.00;55.70
81383;DHT22;70834;37.534;-122.308;2023-07-29T03:59:15;20.00;55.90
81383;DHT22;70834;37.534;-122.308;2023-07-29T04:01:37;19.90;56.00
81383;DHT22;70834;37.534;-122.308;2023-07-29T04:04:01;19.80;56.10
81383;DHT22;70834;37.534;-122.308;2023-07-29T04:06:22;19.80;56.40
81383;DHT22;70834;37.534;-122.308;2023-07-29T04:08:44;19.70;56.70
81383;DHT22;70834;37.534;-122.308;2023-07-29T04:11:05;19.60;57.00
81383;DHT22;70834;37.534;-122.308;2023-07-29T04:13:27;19.50;57.00
81383;DHT22;70834;37.534;-122.308;2023-07-29T04:15:49;19.50;57.30
81383;DHT22;70834;37.534;-122.308;2023-07-29T04:18:10;19.40;57.50
81383;DHT22;70834;37.534;-122.308;2023-07-29T04:20:31;19.40;57.80
81383;DHT22;70834;37.534;-122.308;2023-07-29T04:22:54;19.30;58.30
81383;DHT22;70834;37.534;-122.308;2023-07-29T04:25:16;19.20;58.60
81383;DHT22;70834;37.534;-122.308;2023-07-29T04:27:37;19.10;58.90
81383;DHT22;70834;37.534;-122.308;2023-07-29T04:29:58;19.10;59.20
81383;DHT22;70834;37.534;-122.308;2023-07-29T04:32:20;19.00;59.40
81383;DHT22;70834;37.534;-122.308;2023-07-29T04:34:41;18.90;60.00
81383;DHT22;70834;37.534;-122.308;2023-07-29T04:37:03;18.90;60.10
81383;DHT22;70834;37.534;-122.308;2023-07-29T04:39:24;18.80;60.40
81383;DHT22;70834;37.534;-122.308;2023-07-29T04:41:46;18.80;60.50
81383;DHT22;70834;37.534;-122.308;2023-07-29T04:44:07;18.70;60.70
81383;DHT22;70834;37.534;-122.308;2023-07-29T04:46:29;18.70;60.80
81383;DHT22;70834;37.534;-122.308;2023-07-29T04:48:50;18.60;61.10
81383;DHT22;70834;37.534;-122.308;2023-07-29T04:51:11;18.60;61.40
81383;DHT22;70834;37.534;-122.308;2023-07-29T04:53:33;18.50;61.40
81383;DHT22;70834;37.534;-122.308;2023-07-29T04:55:56;18.50;61.70
81383;DHT22;70834;37.534;-122.308;2023-07-29T04:58:17;18.40;62.00
81383;DHT22;70834;37.534;-122.308;2023-07-29T05:00:38;18.40;62.30
81383;DHT22;70834;37.534;-122.308;2023-07-29T05:03:00;18.40;62.80
81383;DHT22;70834;37.534;-122.308;2023-07-29T05:05:22;18.30;63.00
81383;DHT22;70834;37.534;-122.308;2023-07-29T05:07:43;18.30;63.10
81383;DHT22;70834;37.534;-122.308;2023-07-29T05:10:05;18.30;63.20
81383;DHT22;70834;37.534;-122.308;2023-07-29T05:12:27;18.20;63.50
81383;DHT22;70834;37.534;-122.308;2023-07-29T05:14:50;18.20;63.70
81383;DHT22;70834;37.534;-122.308;2023-07-29T05:17:11;18.20;63.90
81383;DHT22;70834;37.534;-122.308;2023-07-29T05:19:33;18.10;64.20
81383;DHT22;70834;37.534;-122.308;2023-07-29T05:21:55;18.10;64.20
81383;DHT22;70834;37.534;-122.308;2023-07-29T05:24:17;18.10;64.60
81383;DHT22;70834;37.534;-122.308;2023-07-29T05:26:38;18.00;64.70
81383;DHT22;70834;37.534;-122.308;2023-07-29T05:28:59;17.90;64.80
81383;DHT22;70834;37.534;-122.308;2023-07-29T05:31:22;17.90;65.20
81383;DHT22;70834;37.534;-122.308;2023-07-29T05:33:43;17.80;65.20
81383;DHT22;70834;37.534;-122.308;2023-07-29T05:36:25;17.80;65.50
81383;DHT22;70834;37.534;-122.308;2023-07-29T05:38:46;17.80;65.70
81383;DHT22;70834;37.534;-122.308;2023-07-29T05:41:08;17.80;65.80
81383;DHT22;70834;37.534;-122.308;2023-07-29T05:43:29;17.70;65.90
81383;DHT22;70834;37.534;-122.308;2023-07-29T05:45:51;17.70;66.20
81383;DHT22;70834;37.534;-122.308;2023-07-29T05:48:12;17.60;66.30
81383;DHT22;70834;37.534;-122.308;2023-07-29T05:50:33;17.60;67.20
81383;DHT22;70834;37.534;-122.308;2023-07-29T05:52:55;17.50;66.50
81383;DHT22;70834;37.534;-122.308;2023-07-29T05:55:16;17.50;66.70
81383;DHT22;70834;37.534;-122.308;2023-07-29T05:57:38;17.40;66.80
81383;DHT22;70834;37.534;-122.308;2023-07-29T05:59:59;17.40;66.90
81383;DHT22;70834;37.534;-122.308;2023-07-29T06:02:21;17.40;67.20
81383;DHT22;70834;37.534;-122.308;2023-07-29T06:04:42;17.40;67.30
81383;DHT22;70834;37.534;-122.308;2023-07-29T06:07:04;17.30;67.30
81383;DHT22;70834;37.534;-122.308;2023-07-29T06:09:26;17.30;67.50
81383;DHT22;70834;37.534;-122.308;2023-07-29T06:11:47;17.30;67.70
81383;DHT22;70834;37.534;-122.308;2023-07-29T06:14:09;17.30;67.90
81383;DHT22;70834;37.534;-122.308;2023-07-29T06:16:30;17.30;68.10
81383;DHT22;70834;37.534;-122.308;2023-07-29T06:18:52;17.20;69.00
81383;DHT22;70834;37.534;-122.308;2023-07-29T06:21:13;17.20;68.40
81383;DHT22;70834;37.534;-122.308;2023-07-29T06:23:37;17.20;68.50
81383;DHT22;70834;37.534;-122.308;2023-07-29T06:25:59;17.20;68.90
81383;DHT22;70834;37.534;-122.308;2023-07-29T06:28:21;17.10;68.90
81383;DHT22;70834;37.534;-122.308;2023-07-29T06:30:42;17.20;68.90
81383;DHT22;70834;37.534;-122.308;2023-07-29T06:33:04;17.20;69.00
81383;DHT22;70834;37.534;-122.308;2023-07-29T06:35:26;17.10;69.30
81383;DHT22;70834;37.534;-122.308;2023-07-29T06:37:47;17.10;69.30
81383;DHT22;70834;37.534;-122.308;2023-07-29T06:40:09;17.10;69.50
81383;DHT22;70834;37.534;-122.308;2023-07-29T06:42:30;17.10;69.60
81383;DHT22;70834;37.534;-122.308;2023-07-29T06:44:52;17.00;69.70
81383;DHT22;70834;37.534;-122.308;2023-07-29T06:47:13;17.00;69.80
81383;DHT22;70834;37.534;-122.308;2023-07-29T06:49:35;17.00;70.00
81383;DHT22;70834;37.534;-122.308;2023-07-29T06:51:56;17.00;70.20
81383;DHT22;70834;37.534;-122.308;2023-07-29T06:54:17;16.90;70.40
81383;DHT22;70834;37.534;-122.308;2023-07-29T06:56:39;17.00;70.40
81383;DHT22;70834;37.534;-122.308;2023-07-29T06:59:00;16.90;70.60
81383;DHT22;70834;37.534;-122.308;2023-07-29T07:01:22;16.90;70.80
81383;DHT22;70834;37.534;-122.308;2023-07-29T07:03:43;16.90;70.90
81383;DHT22;70834;37.534;-122.308;2023-07-29T07:06:04;16.90;71.30
81383;DHT22;70834;37.534;-122.308;2023-07-29T07:08:26;16.90;71.40
81383;DHT22;70834;37.534;-122.308;2023-07-29T07:10:48;16.90;71.50
81383;DHT22;70834;37.534;-122.308;2023-07-29T07:13:09;16.90;71.70
81383;DHT22;70834;37.534;-122.308;2023-07-29T07:15:31;16.90;71.40
81383;DHT22;70834;37.534;-122.308;2023-07-29T07:17:52;16.90;71.40
81383;DHT22;70834;37.534;-122.308;2023-07-29T07:20:14;16.90;71.70
81383;DHT22;70834;37.534;-122.308;2023-07-29T07:22:35;17.00;71.60
81383;DHT22;70834;37.534;-122.308;2023-07-29T07:24:57;16.90;71.80
81383;DHT22;70834;37.534;-122.308;2023-07-29T07:27:18;16.90;71.70
81383;DHT22;70834;37.534;-122.308;2023-07-29T07:29:40;16.90;71.90
81383;DHT22;70834;37.534;-122.308;2023-07-29T07:32:01;16.90;72.00
81383;DHT22;70834;37.534;-122.308;2023-07-29T07:34:23;16.90;72.40
81383;DHT22;70834;37.534;-122.308;2023-07-29T07:36:45;16.90;72.40
81383;DHT22;70834;37.534;-122.308;2023-07-29T07:39:06;16.90;72.50
81383;DHT22;70834;37.534;-122.308;2023-07-29T07:41:27;16.80;72.30
81383;DHT22;70834;37.534;-122.308;2023-07-29T07:43:49;16.80;72.50
81383;DHT22;70834;37.534;-122.308;2023-07-29T07:46:10;16.80;72.70
81383;DHT22;70834;37.534;-122.308;2023-07-29T07:48:32;16.80;72.80
81383;DHT22;70834;37.534;-122.308;2023-07-29T07:50:54;16.80;73.00
81383;DHT22;70834;37.534;-122.308;2023-07-29T07:53:15;16.80;72.90
81383;DHT22;70834;37.534;-122.308;2023-07-29T07:55:37;16.80;73.10
81383;DHT22;70834;37.534;-122.308;2023-07-29T07:57:58;16.80;73.30
81383;DHT22;70834;37.534;-122.308;2023-07-29T08:00:19;16.80;73.40
81383;DHT22;70834;37.534;-122.308;2023-07-29T08:02:41;16.80;73.50
81383;DHT22;70834;37.534;-122.308;2023-07-29T08:05:03;16.80;73.60
81383;DHT22;70834;37.534;-122.308;2023-07-29T08:07:25;16.80;73.60
81383;DHT22;70834;37.534;-122.308;2023-07-29T08:09:46;16.70;73.70
81383;DHT22;70834;37.534;-122.308;2023-07-29T08:12:08;16.70;73.60
81383;DHT22;70834;37.534;-122.308;2023-07-29T08:14:29;16.70;73.70
81383;DHT22;70834;37.534;-122.308;2023-07-29T08:16:50;16.60;73.60
81383;DHT22;70834;37.534;-122.308;2023-07-29T08:19:12;16.60;73.70
81383;DHT22;70834;37.534;-122.308;2023-07-29T08:21:33;16.60;73.90
81383;DHT22;70834;37.534;-122.308;2023-07-29T08:23:55;16.60;73.70
81383;DHT22;70834;37.534;-122.308;2023-07-29T08:26:16;16.60;73.70
81383;DHT22;70834;37.534;-122.308;2023-07-29T08:28:39;16.60;73.70
81383;DHT22;70834;37.534;-122.308;2023-07-29T08:31:01;16.60;73.70
81383;DHT22;70834;37.534;-122.308;2023-07-29T08:33:23;16.50;73.60
81383;DHT22;70834;37.534;-122.308;2023-07-29T08:35:44;16.50;73.60
81383;DHT22;70834;37.534;-122.308;2023-07-29T08:38:06;16.40;73.60
81383;DHT22;70834;37.534;-122.308;2023-07-29T08:40:29;16.40;73.50
81383;DHT22;70834;37.534;-122.308;2023-07-29T08:42:50;16.30;73.60
81383;DHT22;70834;37.534;-122.308;2023-07-29T08:45:13;16.30;73.70
81383;DHT22;70834;37.534;-122.308;2023-07-29T08:47:35;16.30;73.90
81383;DHT22;70834;37.534;-122.308;2023-07-29T08:49:57;16.30;74.10
81383;DHT22;70834;37.534;-122.308;2023-07-29T08:52:20;16.30;74.20
81383;DHT22;70834;37.534;-122.308;2023-07-29T08:54:42;16.20;74.00
81383;DHT22;70834;37.534;-122.308;2023-07-29T08:57:04;16.20;73.90
81383;DHT22;70834;37.534;-122.308;2023-07-29T08:59:26;16.20;73.80
81383;DHT22;70834;37.534;-122.308;2023-07-29T09:01:49;16.20;74.00
81383;DHT22;70834;37.534;-122.308;2023-07-29T09:04:11;16.20;74.30
81383;DHT22;70834;37.534;-122.308;2023-07-29T09:06:33;16.10;74.70
81383;DHT22;70834;37.534;-122.308;2023-07-29T09:08:55;16.10;74.80
81383;DHT22;70834;37.534;-122.308;2023-07-29T09:11:19;16.10;74.70
81383;DHT22;70834;37.534;-122.308;2023-07-29T09:13:41;16.00;74.70
81383;DHT22;70834;37.534;-122.308;2023-07-29T09:16:04;16.00;74.60
81383;DHT22;70834;37.534;-122.308;2023-07-29T09:18:27;16.00;74.30
81383;DHT22;70834;37.534;-122.308;2023-07-29T09:20:50;16.00;74.30
81383;DHT22;70834;37.534;-122.308;2023-07-29T09:23:11;16.00;74.30
81383;DHT22;70834;37.534;-122.308;2023-07-29T09:25:33;15.90;74.40
81383;DHT22;70834;37.534;-122.308;2023-07-29T09:28:01;15.90;74.50
81383;DHT22;70834;37.534;-122.308;2023-07-29T09:30:23;15.80;74.30
81383;DHT22;70834;37.534;-122.308;2023-07-29T09:32:44;15.80;74.80
81383;DHT22;70834;37.534;-122.308;2023-07-29T09:35:10;15.80;75.00
81383;DHT22;70834;37.534;-122.308;2023-07-29T09:37:32;15.70;75.00
81383;DHT22;70834;37.534;-122.308;2023-07-29T09:39:54;15.70;74.90
81383;DHT22;70834;37.534;-122.308;2023-07-29T09:42:22;15.70;75.60
81383;DHT22;70834;37.534;-122.308;2023-07-29T09:44:44;15.70;75.60
81383;DHT22;70834;37.534;-122.308;2023-07-29T09:47:05;15.60;75.20
81383;DHT22;70834;37.534;-122.308;2023-07-29T09:49:27;15.60;75.00
81383;DHT22;70834;37.534;-122.308;2023-07-29T09:51:48;15.60;75.10
81383;DHT22;70834;37.534;-122.308;2023-07-29T09:54:11;15.60;75.30
81383;DHT22;70834;37.534;-122.308;2023-07-29T09:56:34;15.60;75.50
81383;DHT22;70834;37.534;-122.308;2023-07-29T09:59:00;15.50;75.40
81383;DHT22;70834;37.534;-122.308;2023-07-29T10:01:22;15.50;75.40
81383;DHT22;70834;37.534;-122.308;2023-07-29T10:03:45;15.50;75.50
81383;DHT22;70834;37.534;-122.308;2023-07-29T10:06:07;15.40;75.90
81383;DHT22;70834;37.534;-122.308;2023-07-29T10:08:33;15.40;76.10
81383;DHT22;70834;37.534;-122.308;2023-07-29T10:11:00;15.40;75.80
81383;DHT22;70834;37.534;-122.308;2023-07-29T10:13:22;15.30;75.80
81383;DHT22;70834;37.534;-122.308;2023-07-29T10:15:45;15.30;75.90
81383;DHT22;70834;37.534;-122.308;2023-07-29T10:18:07;15.30;76.10
81383;DHT22;70834;37.534;-122.308;2023-07-29T10:20:30;15.20;76.00
81383;DHT22;70834;37.534;-122.308;2023-07-29T10:22:55;15.20;75.90
81383;DHT22;70834;37.534;-122.308;2023-07-29T10:25:19;15.20;76.20
81383;DHT22;70834;37.534;-122.308;2023-07-29T10:28:04;15.20;76.30
81383;DHT22;70834;37.534;-122.308;2023-07-29T10:30:28;15.10;76.40
81383;DHT22;70834;37.534;-122.308;2023-07-29T10:32:50;15.10;76.40
81383;DHT22;70834;37.534;-122.308;2023-07-29T10:35:16;15.10;76.50
81383;DHT22;70834;37.534;-122.308;2023-07-29T10:37:38;15.10;76.50
81383;DHT22;70834;37.534;-122.308;2023-07-29T10:40:00;15.00;76.20
81383;DHT22;70834;37.534;-122.308;2023-07-29T10:42:21;15.00;76.50
81383;DHT22;70834;37.534;-122.308;2023-07-29T10:44:47;15.00;76.90
81383;DHT22;70834;37.534;-122.308;2023-07-29T10:47:17;15.00;77.40
81383;DHT22;70834;37.534;-122.308;2023-07-29T10:49:45;15.00;77.30
81383;DHT22;70834;37.534;-122.308;2023-07-29T10:52:07;15.00;77.20
81383;DHT22;70834;37.534;-122.308;2023-07-29T10:54:28;14.90;77.10
81383;DHT22;70834;37.534;-122.308;2023-07-29T10:56:50;14.90;77.50
81383;DHT22;70834;37.534;-122.308;2023-07-29T11:01:33;14.90;77.70
81383;DHT22;70834;37.534;-122.308;2023-07-29T11:09:57;14.80;77.90
81383;DHT22;70834;37.534;-122.308;2023-07-29T11:12:45;14.80;78.20
81383;DHT22;70834;37.534;-122.308;2023-07-29T11:17:33;14.80;78.70
81383;DHT22;70834;37.534;-122.308;2023-07-29T11:20:00;14.80;79.10
81383;DHT22;70834;37.534;-122.308;2023-07-29T11:22:22;14.80;79.60
81383;DHT22;70834;37.534;-122.308;2023-07-29T11:24:43;14.70;79.70
81383;DHT22;70834;37.534;-122.308;2023-07-29T11:27:05;14.70;79.80
81383;DHT22;70834;37.534;-122.308;2023-07-29T11:29:26;14.70;80.10
81383;DHT22;70834;37.534;-122.308;2023-07-29T11:31:48;14.70;80.10
81383;DHT22;70834;37.534;-122.308;2023-07-29T11:34:09;14.80;80.40
81383;DHT22;70834;37.534;-122.308;2023-07-29T11:36:35;14.80;80.40
81383;DHT22;70834;37.534;-122.308;2023-07-29T11:38:56;14.80;80.40
81383;DHT22;70834;37.534;-122.308;2023-07-29T11:41:20;14.70;80.10
81383;DHT22;70834;37.534;-122.308;2023-07-29T11:43:43;14.80;80.10
81383;DHT22;70834;37.534;-122.308;2023-07-29T11:46:05;14.80;80.20
81383;DHT22;70834;37.534;-122.308;2023-07-29T11:48:33;14.80;80.60
81383;DHT22;70834;37.534;-122.308;2023-07-29T11:50:55;14.80;80.40
81383;DHT22;70834;37.534;-122.308;2023-07-29T11:53:16;14.80;80.40
81383;DHT22;70834;37.534;-122.308;2023-07-29T11:55:37;14.80;80.20
81383;DHT22;70834;37.534;-122.308;2023-07-29T11:57:59;14.70;79.90
81383;DHT22;70834;37.534;-122.308;2023-07-29T12:00:22;14.70;80.00
81383;DHT22;70834;37.534;-122.308;2023-07-29T12:02:45;14.70;80.00
81383;DHT22;70834;37.534;-122.308;2023-07-29T12:05:09;14.70;80.00
81383;DHT22;70834;37.534;-122.308;2023-07-29T12:07:31;14.70;80.10
81383;DHT22;70834;37.534;-122.308;2023-07-29T12:09:54;14.70;79.90
81383;DHT22;70834;37.534;-122.308;2023-07-29T12:12:16;14.70;79.80
81383;DHT22;70834;37.534;-122.308;2023-07-29T12:14:38;14.70;79.50
81383;DHT22;70834;37.534;-122.308;2023-07-29T12:17:06;14.70;79.50
81383;DHT22;70834;37.534;-122.308;2023-07-29T12:19:36;14.60;79.40
81383;DHT22;70834;37.534;-122.308;2023-07-29T12:21:57;14.60;79.20
81383;DHT22;70834;37.534;-122.308;2023-07-29T12:24:19;14.60;79.20
81383;DHT22;70834;37.534;-122.308;2023-07-29T12:26:41;14.60;79.50
81383;DHT22;70834;37.534;-122.308;2023-07-29T12:29:17;14.60;79.60
81383;DHT22;70834;37.534;-122.308;2023-07-29T12:31:40;14.60;79.70
81383;DHT22;70834;37.534;-122.308;2023-07-29T12:34:01;14.60;79.90
81383;DHT22;70834;37.534;-122.308;2023-07-29T12:36:39;14.50;79.70
81383;DHT22;70834;37.534;-122.308;2023-07-29T12:39:01;14.50;79.60
81383;DHT22;70834;37.534;-122.308;2023-07-29T12:41:22;14.50;79.50
81383;DHT22;70834;37.534;-122.308;2023-07-29T12:43:44;14.50;79.70
81383;DHT22;70834;37.534;-122.308;2023-07-29T12:46:06;14.50;80.10
81383;DHT22;70834;37.534;-122.308;2023-07-29T12:48:27;14.40;80.20
81383;DHT22;70834;37.534;-122.308;2023-07-29T12:50:49;14.50;80.40
81383;DHT22;70834;37.534;-122.308;2023-07-29T12:53:10;14.40;80.00
81383;DHT22;70834;37.534;-122.308;2023-07-29T12:55:32;14.40;79.90
81383;DHT22;70834;37.534;-122.308;2023-07-29T12:57:53;14.40;79.80
81383;DHT22;70834;37.534;-122.308;2023-07-29T13:00:14;14.40;79.70
81383;DHT22;70834;37.534;-122.308;2023-07-29T13:02:36;14.40;79.80
81383;DHT22;70834;37.534;-122.308;2023-07-29T13:04:57;14.40;79.50
81383;DHT22;70834;37.534;-122.308;2023-07-29T13:07:19;14.30;79.50
81383;DHT22;70834;37.534;-122.308;2023-07-29T13:09:40;14.30;79.70
81383;DHT22;70834;37.534;-122.308;2023-07-29T13:12:02;14.30;79.70
81383;DHT22;70834;37.534;-122.308;2023-07-29T13:14:23;14.30;80.00
81383;DHT22;70834;37.534;-122.308;2023-07-29T13:16:47;14.30;80.30
81383;DHT22;70834;37.534;-122.308;2023-07-29T13:19:08;14.30;80.40
81383;DHT22;70834;37.534;-122.308;2023-07-29T13:21:29;14.30;80.90
81383;DHT22;70834;37.534;-122.308;2023-07-29T13:23:51;14.30;81.10
81383;DHT22;70834;37.534;-122.308;2023-07-29T13:26:13;14.30;81.30
81383;DHT22;70834;37.534;-122.308;2023-07-29T13:28:34;14.30;81.70
81383;DHT22;70834;37.534;-122.308;2023-07-29T13:30:55;14.20;81.80
81383;DHT22;70834;37.534;-122.308;2023-07-29T13:33:17;14.30;81.90
81383;DHT22;70834;37.534;-122.308;2023-07-29T13:35:38;14.30;82.10
81383;DHT22;70834;37.534;-122.308;2023-07-29T13:38:01;14.30;82.30
81383;DHT22;70834;37.534;-122.308;2023-07-29T13:40:22;14.30;82.40
81383;DHT22;70834;37.534;-122.308;2023-07-29T13:42:44;14.30;82.40
81383;DHT22;70834;37.534;-122.308;2023-07-29T13:45:05;14.40;82.40
81383;DHT22;70834;37.534;-122.308;2023-07-29T13:47:27;14.40;82.50
81383;DHT22;70834;37.534;-122.308;2023-07-29T13:49:48;14.50;82.70
81383;DHT22;70834;37.534;-122.308;2023-07-29T13:52:10;14.50;82.90
81383;DHT22;70834;37.534;-122.308;2023-07-29T13:54:31;14.60;83.90
81383;DHT22;70834;37.534;-122.308;2023-07-29T13:56:53;14.60;83.30
81383;DHT22;70834;37.534;-122.308;2023-07-29T13:59:15;14.60;83.10
81383;DHT22;70834;37.534;-122.308;2023-07-29T14:01:36;14.70;83.20
81383;DHT22;70834;37.534;-122.308;2023-07-29T14:03:57;14.70;83.10
81383;DHT22;70834;37.534;-122.308;2023-07-29T14:06:19;14.80;83.20
81383;DHT22;70834;37.534;-122.308;2023-07-29T14:08:40;14.80;83.20
81383;DHT22;70834;37.534;-122.308;2023-07-29T14:11:02;14.90;83.40
81383;DHT22;70834;37.534;-122.308;2023-07-29T14:13:24;15.00;83.40
81383;DHT22;70834;37.534;-122.308;2023-07-29T14:15:45;15.00;83.40
81383;DHT22;70834;37.534;-122.308;2023-07-29T14:18:07;15.10;83.30
81383;DHT22;70834;37.534;-122.308;2023-07-29T14:20:28;15.20;83.30
81383;DHT22;70834;37.534;-122.308;2023-07-29T14:22:50;15.30;83.30
81383;DHT22;70834;37.534;-122.308;2023-07-29T14:25:11;15.40;83.30
81383;DHT22;70834;37.534;-122.308;2023-07-29T14:27:33;15.50;83.30
81383;DHT22;70834;37.534;-122.308;2023-07-29T14:29:54;15.60;83.30
81383;DHT22;70834;37.534;-122.308;2023-07-29T14:32:15;15.80;83.30